Time;durP1;ratioP1;P1;durP2;ratioP2;P2;SDS_P1;SDS_P2;PMS_P1;PMS_P2;Temp;Humidity;BMP_temperature;BMP_pressure;BME280_temperature;BME280_humidity;BME280_pressure;Samples;Min_cycle;Max_cycle;Signal;HPM_P1;HPM_P2
2022/07/21 00:01:48;;;;;;;45.88;25.20;;;19.60;99.90;;;;;;5007076;28;19919;-61
2022/07/21 00:04:15;;;;;;;42.42;25.75;;;19.60;99.90;;;;;;5009560;28;20034;-61
2022/07/21 00:06:42;;;;;;;40.88;24.65;;;19.60;99.90;;;;;;5009211;28;20045;-61
2022/07/21 00:09:09;;;;;;;40.92;24.98;;;19.60;99.90;;;;;;5011314;28;20392;-61
2022/07/21 00:11:34;;;;;;;41.47;25.85;;;19.70;99.90;;;;;;5009105;28;20057;-61
2022/07/21 00:14:00;;;;;;;36.83;23.60;;;19.80;99.90;;;;;;5008893;28;20053;-61
2022/07/21 00:16:26;;;;;;;43.38;25.30;;;19.70;99.90;;;;;;5009275;28;20109;-61
2022/07/21 00:18:51;;;;;;;38.90;22.65;;;19.80;99.90;;;;;;5008736;28;20551;-61
2022/07/21 00:21:17;;;;;;;32.45;22.10;;;19.90;99.90;;;;;;5002670;28;20029;-61
2022/07/21 00:23:43;;;;;;;43.00;23.80;;;19.90;99.90;;;;;;5008829;28;20026;-61
2022/07/21 00:26:08;;;;;;;34.00;22.08;;;19.90;99.90;;;;;;4990897;28;20107;-61
2022/07/21 00:28:34;;;;;;;39.95;22.95;;;19.90;99.90;;;;;;5008144;28;20381;-61
2022/07/21 00:31:00;;;;;;;34.03;20.98;;;20.00;99.90;;;;;;5002716;28;20030;-61
2022/07/21 00:33:26;;;;;;;37.17;23.00;;;20.00;99.90;;;;;;5009972;28;20034;-61
2022/07/21 00:35:51;;;;;;;38.30;23.02;;;20.00;99.90;;;;;;5010289;28;20037;-61
2022/07/21 00:38:17;;;;;;;46.88;23.55;;;19.90;99.90;;;;;;5008802;28;20038;-61
2022/07/21 00:40:43;;;;;;;40.10;22.13;;;19.80;99.90;;;;;;5004553;28;20385;-61
2022/07/21 00:43:09;;;;;;;40.58;24.58;;;19.70;99.90;;;;;;5005470;28;20103;-61
2022/07/21 00:45:35;;;;;;;40.90;25.00;;;19.60;99.90;;;;;;5008878;28;20081;-61
2022/07/21 00:48:01;;;;;;;41.38;24.63;;;19.50;99.90;;;;;;5008635;28;20665;-61
2022/07/21 00:50:27;;;;;;;40.35;25.23;;;19.50;99.90;;;;;;5009594;28;20030;-61
2022/07/21 00:52:53;;;;;;;39.72;25.88;;;19.50;99.90;;;;;;5004987;28;20465;-61
2022/07/21 00:55:22;;;;;;;41.72;25.30;;;19.50;99.90;;;;;;5010459;28;20109;-61
2022/07/21 00:57:48;;;;;;;43.83;24.00;;;19.50;99.90;;;;;;4998026;28;20129;-61
2022/07/21 01:00:20;;;;;;;38.70;25.00;;;19.60;99.90;;;;;;4993663;28;20037;-61
2022/07/21 01:02:46;;;;;;;41.47;24.70;;;19.50;99.90;;;;;;5008032;28;20026;-62
2022/07/21 01:05:14;;;;;;;37.33;24.48;;;19.40;99.90;;;;;;5009214;28;20041;-61
2022/07/21 01:07:47;;;;;;;43.10;25.00;;;19.50;99.90;;;;;;5007391;28;20400;-61
2022/07/21 01:10:14;;;;;;;42.53;25.63;;;19.50;99.90;;;;;;5008370;28;20034;-61
2022/07/21 01:12:41;;;;;;;43.50;26.52;;;19.30;99.90;;;;;;5007608;28;20034;-61
2022/07/21 01:15:09;;;;;;;43.70;25.83;;;19.30;99.90;;;;;;5008157;28;20500;-61
2022/07/21 01:17:35;;;;;;;43.53;25.75;;;19.30;99.90;;;;;;5008302;28;20026;-61
2022/07/21 01:20:07;;;;;;;43.35;25.35;;;19.30;99.90;;;;;;5009009;28;20044;-61
2022/07/21 01:22:34;;;;;;;41.97;24.33;;;19.20;99.90;;;;;;5007757;28;20088;-61
2022/07/21 01:25:00;;;;;;;42.65;24.27;;;19.20;99.90;;;;;;5004355;28;20384;-61
2022/07/21 01:27:26;;;;;;;41.97;23.95;;;19.30;99.90;;;;;;5009380;28;20057;-62
2022/07/21 01:29:52;;;;;;;40.80;24.98;;;19.30;99.90;;;;;;5005028;28;20073;-61
2022/07/21 01:32:18;;;;;;;41.05;24.52;;;19.30;99.90;;;;;;5006163;28;20117;-61
2022/07/21 01:34:44;;;;;;;39.75;25.17;;;19.30;99.90;;;;;;5006831;28;20101;-61
2022/07/21 01:37:09;;;;;;;42.38;26.25;;;19.30;99.90;;;;;;5000068;28;20038;-61
2022/07/21 01:42:21;;;;;;;48.65;27.70;;;19.20;99.90;;;;;;4950232;28;20049;-61
2022/07/21 01:44:48;;;;;;;51.20;28.55;;;19.30;99.90;;;;;;4998092;28;20034;-61
2022/07/21 01:47:14;;;;;;;45.33;26.70;;;19.20;99.90;;;;;;5007674;28;20038;-61
2022/07/21 01:49:40;;;;;;;44.17;26.45;;;19.10;99.90;;;;;;5008732;28;20030;-61
2022/07/21 01:52:06;;;;;;;46.33;27.67;;;19.10;99.90;;;;;;5007804;28;20025;-61
2022/07/21 01:54:32;;;;;;;47.60;26.85;;;19.10;99.90;;;;;;5007781;28;20030;-62
2022/07/21 01:56:57;;;;;;;59.45;28.20;;;19.10;99.90;;;;;;4989201;28;20029;-61
2022/07/21 01:59:23;;;;;;;52.40;28.80;;;19.10;99.90;;;;;;5009127;28;20072;-61
2022/07/21 02:01:49;;;;;;;51.13;28.63;;;19.00;99.90;;;;;;5006699;28;20384;-61
2022/07/21 02:04:14;;;;;;;44.63;26.60;;;19.00;99.90;;;;;;5006120;28;20108;-61
2022/07/21 02:06:40;;;;;;;50.20;28.58;;;19.00;99.90;;;;;;5002798;28;20053;-61
2022/07/21 02:09:08;;;;;;;46.72;26.88;;;19.10;99.90;;;;;;5006588;28;20033;-61
2022/07/21 02:11:34;;;;;;;50.50;28.50;;;19.00;99.90;;;;;;5007357;28;20057;-61
2022/07/21 02:14:01;;;;;;;53.75;29.80;;;19.00;99.90;;;;;;5007623;28;20080;-61
2022/07/21 02:16:26;;;;;;;49.97;28.13;;;19.00;99.90;;;;;;5007041;28;20799;-61
2022/07/21 02:18:52;;;;;;;48.35;28.55;;;18.90;99.90;;;;;;5003291;28;20034;-61
2022/07/21 02:51:11;;;;;;;59.55;33.55;;;18.90;99.90;;;;;;4837734;24;20413;-66
2022/07/21 02:53:36;;;;;;;59.00;33.25;;;18.90;99.90;;;;;;4833570;29;20046;-69
2022/07/21 02:56:02;;;;;;;57.42;33.17;;;18.90;99.90;;;;;;4835185;29;20116;-67
2022/07/21 02:58:29;;;;;;;54.50;31.75;;;18.90;99.90;;;;;;4835507;29;20117;-69
2022/07/21 03:01:05;;;;;;;53.60;30.83;;;19.00;99.90;;;;;;4835298;29;20030;-66
2022/07/21 03:03:34;;;;;;;55.03;30.73;;;19.10;99.90;;;;;;4837064;29;20033;-66
2022/07/21 03:05:59;;;;;;;56.15;30.40;;;19.10;99.90;;;;;;4833315;29;20042;-65
2022/07/21 03:08:27;;;;;;;61.75;31.35;;;19.10;99.90;;;;;;4831725;29;20038;-65
2022/07/21 03:10:53;;;;;;;53.13;31.92;;;19.10;99.90;;;;;;4833891;29;20038;-64
2022/07/21 03:13:19;;;;;;;50.63;29.90;;;19.10;99.90;;;;;;4836345;29;20033;-64
2022/07/21 03:15:44;;;;;;;51.63;30.30;;;19.10;99.90;;;;;;4838368;29;20041;-69
2022/07/21 03:18:10;;;;;;;52.90;30.45;;;19.10;99.90;;;;;;4840981;29;20033;-69
2022/07/21 03:20:38;;;;;;;50.78;29.80;;;19.10;99.90;;;;;;4840073;29;20042;-67
2022/07/21 03:23:04;;;;;;;52.05;29.65;;;19.00;99.90;;;;;;4839444;29;20065;-67
2022/07/21 03:25:30;;;;;;;50.85;28.98;;;19.10;99.90;;;;;;4835833;29;20066;-69
2022/07/21 03:27:56;;;;;;;43.67;26.92;;;19.00;99.90;;;;;;4838614;29;20489;-68
2022/07/21 03:30:22;;;;;;;46.60;27.98;;;19.00;99.90;;;;;;4839449;29;20041;-69
2022/07/21 03:32:49;;;;;;;45.03;27.33;;;19.10;99.90;;;;;;4839628;29;20489;-70
2022/07/21 03:35:15;;;;;;;44.50;27.67;;;19.10;99.90;;;;;;4841155;29;20050;-67
2022/07/21 03:37:46;;;;;;;41.13;25.58;;;19.10;99.90;;;;;;4833490;29;20038;-69
2022/07/21 03:40:14;;;;;;;44.42;26.17;;;19.10;99.90;;;;;;4835494;29;20034;-66
2022/07/21 03:42:40;;;;;;;45.35;26.75;;;19.10;99.90;;;;;;4837482;29;20034;-69
2022/07/21 03:45:07;;;;;;;43.47;26.40;;;19.10;99.90;;;;;;4838270;29;20034;-67
2022/07/21 03:47:33;;;;;;;47.20;27.25;;;19.20;99.90;;;;;;4840148;29;20397;-69
2022/07/21 03:49:58;;;;;;;44.00;26.42;;;19.10;99.90;;;;;;4839716;29;20058;-69
2022/07/21 03:52:24;;;;;;;41.35;25.98;;;19.20;99.90;;;;;;4837182;29;20041;-71
2022/07/21 03:54:50;;;;;;;42.65;27.05;;;19.20;99.90;;;;;;4836649;29;20041;-71
2022/07/21 03:57:16;;;;;;;45.35;27.52;;;19.30;99.90;;;;;;4833718;29;20042;-73
2022/07/21 03:59:44;;;;;;;48.33;29.45;;;19.30;99.90;;;;;;4837787;29;20037;-74
2022/07/21 04:02:10;;;;;;;48.38;28.58;;;19.30;99.90;;;;;;4839045;29;20064;-73
2022/07/21 04:04:35;;;;;;;50.30;29.02;;;19.20;99.90;;;;;;4838742;29;21294;-72
2022/07/21 04:07:01;;;;;;;47.75;28.13;;;19.20;99.90;;;;;;4837804;29;20080;-73
2022/07/21 04:09:27;;;;;;;48.97;27.50;;;19.20;99.90;;;;;;4838908;29;20065;-71
2022/07/21 04:11:52;;;;;;;46.55;29.73;;;19.10;99.90;;;;;;4839395;29;20123;-72
2022/07/21 04:14:18;;;;;;;49.70;29.80;;;19.10;99.90;;;;;;4838354;29;20037;-74
2022/07/21 04:16:44;;;;;;;54.05;31.95;;;19.10;99.90;;;;;;4838908;29;20030;-72
2022/07/21 04:19:09;;;;;;;55.38;32.67;;;19.10;99.90;;;;;;4837170;29;20038;-71
2022/07/21 04:21:35;;;;;;;50.83;30.98;;;19.10;99.90;;;;;;4839279;29;20377;-69
2022/07/21 04:24:01;;;;;;;56.42;31.67;;;19.20;99.90;;;;;;4838958;29;20033;-72
2022/07/21 04:26:27;;;;;;;53.67;31.45;;;19.20;99.90;;;;;;4839303;29;20133;-71
2022/07/21 04:28:53;;;;;;;56.25;32.10;;;19.20;99.90;;;;;;4836273;29;20561;-74
2022/07/21 04:31:19;;;;;;;54.85;31.33;;;19.10;99.90;;;;;;4839043;29;20120;-71
2022/07/21 04:33:45;;;;;;;51.25;31.92;;;19.10;99.90;;;;;;4839788;29;20155;-71
2022/07/21 04:36:10;;;;;;;54.70;32.35;;;19.00;99.90;;;;;;4840224;29;20034;-71
2022/07/21 04:38:36;;;;;;;57.03;31.95;;;19.00;99.90;;;;;;4837674;29;20033;-71
2022/07/21 04:41:02;;;;;;;60.08;32.28;;;19.00;99.90;;;;;;4839600;29;20057;-71
2022/07/21 04:43:27;;;;;;;53.72;30.75;;;19.10;99.90;;;;;;4837583;29;20040;-71
2022/07/21 04:45:53;;;;;;;54.55;31.58;;;19.00;99.90;;;;;;4838665;29;20038;-74
2022/07/21 04:48:19;;;;;;;49.03;29.02;;;19.10;99.90;;;;;;4837371;29;20146;-71
2022/07/21 04:50:44;;;;;;;51.28;29.85;;;19.00;99.90;;;;;;4838568;29;20097;-72
2022/07/21 04:53:11;;;;;;;47.42;28.10;;;19.10;99.90;;;;;;4821325;29;20045;-73
2022/07/21 04:55:36;;;;;;;46.45;27.60;;;19.00;99.90;;;;;;4839267;29;20044;-72
2022/07/21 04:58:02;;;;;;;43.60;26.88;;;19.00;99.90;;;;;;4837945;29;20038;-71
2022/07/21 05:00:29;;;;;;;44.85;26.20;;;19.00;99.90;;;;;;4839175;29;20033;-70
2022/07/21 05:02:55;;;;;;;43.70;25.88;;;19.00;99.90;;;;;;4837529;29;20516;-75
2022/07/21 05:05:21;;;;;;;45.35;27.92;;;19.00;99.90;;;;;;4837310;29;20029;-70
2022/07/21 05:07:47;;;;;;;46.25;26.35;;;19.00;99.90;;;;;;4821681;29;20053;-70
2022/07/21 05:10:15;;;;;;;42.58;26.58;;;19.00;99.90;;;;;;4836354;29;20662;-70
2022/07/21 05:12:41;;;;;;;44.67;27.65;;;19.00;99.90;;;;;;4822370;29;20034;-69
2022/07/21 05:15:09;;;;;;;42.00;26.85;;;19.00;99.90;;;;;;4837844;29;20044;-71
2022/07/21 05:17:34;;;;;;;39.85;24.80;;;19.00;99.90;;;;;;4839148;29;20038;-70
2022/07/21 05:20:00;;;;;;;41.13;25.10;;;19.00;99.90;;;;;;4836583;29;20044;-72
2022/07/21 05:22:26;;;;;;;42.53;25.48;;;19.00;99.90;;;;;;4838104;29;20108;-70
2022/07/21 05:24:52;;;;;;;37.53;24.67;;;19.00;99.90;;;;;;4837660;29;20409;-75
2022/07/21 05:27:18;;;;;;;41.70;25.67;;;19.10;99.90;;;;;;4837074;29;20046;-70
2022/07/21 05:29:44;;;;;;;39.75;24.63;;;19.10;99.90;;;;;;4837648;29;20041;-72
2022/07/21 05:32:09;;;;;;;45.53;25.05;;;19.20;99.90;;;;;;4836699;29;20032;-70
2022/07/21 05:34:35;;;;;;;40.92;24.80;;;19.10;99.90;;;;;;4838181;29;20362;-70
2022/07/21 05:37:01;;;;;;;41.53;24.77;;;19.20;99.90;;;;;;4835764;29;20066;-68
2022/07/21 05:39:27;;;;;;;43.35;24.52;;;19.10;99.90;;;;;;4837714;29;20571;-72
2022/07/21 05:41:53;;;;;;;43.15;23.92;;;19.20;99.90;;;;;;4837174;29;20066;-73
2022/07/21 05:44:18;;;;;;;40.08;25.55;;;19.10;99.90;;;;;;4837130;29;20038;-72
2022/07/21 05:46:44;;;;;;;45.80;25.13;;;19.20;99.90;;;;;;4837988;29;20401;-70
2022/07/21 05:49:09;;;;;;;43.92;24.67;;;19.20;99.90;;;;;;4836987;29;20114;-71
2022/07/21 05:51:35;;;;;;;36.70;23.98;;;19.20;99.90;;;;;;4837767;29;20062;-72
2022/07/21 05:54:01;;;;;;;37.42;23.85;;;19.20;99.90;;;;;;4835836;29;20034;-70
2022/07/21 05:56:26;;;;;;;41.55;23.83;;;19.20;99.90;;;;;;4837101;29;20042;-72
2022/07/21 05:58:52;;;;;;;39.90;23.25;;;19.20;99.90;;;;;;4836514;29;20450;-72
2022/07/21 06:01:17;;;;;;;42.33;25.10;;;19.20;99.90;;;;;;4834025;29;20041;-71
2022/07/21 06:03:49;;;;;;;39.90;24.42;;;19.30;99.90;;;;;;4834512;29;20034;-71
2022/07/21 06:06:16;;;;;;;43.05;25.67;;;19.30;99.90;;;;;;4819668;29;20214;-72
2022/07/21 06:08:47;;;;;;;39.28;24.05;;;19.40;99.90;;;;;;4837016;29;20161;-73
2022/07/21 06:11:15;;;;;;;44.65;25.52;;;19.40;99.90;;;;;;4836141;29;20065;-71
2022/07/21 06:13:41;;;;;;;44.05;25.67;;;19.50;99.90;;;;;;4837960;29;20026;-70
2022/07/21 06:16:07;;;;;;;52.10;25.83;;;19.50;99.90;;;;;;4837080;29;20038;-69
2022/07/21 06:18:33;;;;;;;40.22;24.50;;;19.60;99.90;;;;;;4835847;29;20042;-71
2022/07/21 06:20:59;;;;;;;40.75;25.92;;;19.60;99.90;;;;;;4836955;29;20049;-75
2022/07/21 06:23:25;;;;;;;36.28;22.90;;;19.60;99.90;;;;;;4837910;29;20061;-71
2022/07/21 06:25:54;;;;;;;43.80;24.20;;;19.60;99.90;;;;;;4838060;29;20080;-72
2022/07/21 06:28:20;;;;;;;38.05;23.60;;;19.70;99.90;;;;;;4838166;29;20057;-69
2022/07/21 06:30:46;;;;;;;39.92;24.85;;;19.70;99.90;;;;;;4837577;29;20064;-71
2022/07/21 06:33:11;;;;;;;40.97;23.35;;;19.90;99.90;;;;;;4836905;29;20054;-72
2022/07/21 06:35:38;;;;;;;39.33;22.38;;;20.10;99.90;;;;;;4838661;29;20064;-71
2022/07/21 06:38:04;;;;;;;35.22;20.63;;;20.30;99.90;;;;;;4837485;29;20029;-72
2022/07/21 06:40:31;;;;;;;35.45;20.70;;;20.40;99.90;;;;;;4837390;29;20091;-69
2022/07/21 06:42:56;;;;;;;35.75;19.85;;;20.50;99.90;;;;;;4837819;29;20049;-73
2022/07/21 06:45:23;;;;;;;29.92;18.95;;;20.50;99.90;;;;;;4837855;29;20030;-71
2022/07/21 06:47:49;;;;;;;34.65;20.58;;;20.50;99.90;;;;;;4837601;29;20034;-69
2022/07/21 06:50:15;;;;;;;31.15;19.67;;;20.60;99.90;;;;;;4836497;29;20058;-73
2022/07/21 06:52:41;;;;;;;31.55;19.73;;;20.70;99.90;;;;;;4841698;29;20039;-73
2022/07/21 06:55:08;;;;;;;29.10;17.77;;;20.70;99.90;;;;;;4840121;29;20046;-72
2022/07/21 06:57:35;;;;;;;32.28;19.67;;;20.60;99.90;;;;;;4838012;29;20038;-72
2022/07/21 07:00:02;;;;;;;31.42;18.10;;;20.70;99.90;;;;;;4840452;29;20041;-71
2022/07/21 07:02:28;;;;;;;27.48;17.17;;;20.80;99.90;;;;;;4840019;29;20050;-73
2022/07/21 07:04:54;;;;;;;31.02;17.77;;;20.90;99.90;;;;;;4837859;29;20030;-72
2022/07/21 07:07:19;;;;;;;26.00;17.63;;;20.90;99.90;;;;;;4838711;29;20045;-72
2022/07/21 07:09:45;;;;;;;32.03;17.58;;;20.90;99.90;;;;;;4839556;29;20026;-70
2022/07/21 07:12:10;;;;;;;26.85;16.02;;;20.90;99.90;;;;;;4838992;29;20045;-73
2022/07/21 07:14:36;;;;;;;25.15;16.70;;;20.90;99.90;;;;;;4840814;29;20419;-74
2022/07/21 07:17:03;;;;;;;27.20;16.05;;;21.00;99.90;;;;;;4834536;29;20427;-72
2022/07/21 07:19:29;;;;;;;21.33;13.75;;;21.10;99.90;;;;;;4840428;29;20477;-72
2022/07/21 07:21:55;;;;;;;22.08;13.90;;;21.30;99.90;;;;;;4840288;29;20036;-73
2022/07/21 07:24:21;;;;;;;22.63;15.20;;;21.40;99.90;;;;;;4839138;29;20033;-73
2022/07/21 07:26:47;;;;;;;22.05;13.93;;;21.40;99.90;;;;;;4840190;29;20046;-73
2022/07/21 07:29:13;;;;;;;20.08;13.45;;;21.40;99.90;;;;;;4838950;29;20062;-70
2022/07/21 07:31:39;;;;;;;20.02;13.38;;;21.30;99.90;;;;;;4840481;29;20044;-72
2022/07/21 07:34:05;;;;;;;23.23;14.25;;;21.30;99.90;;;;;;4839105;29;20052;-75
2022/07/21 07:36:31;;;;;;;24.50;14.77;;;21.40;99.90;;;;;;4840113;29;20037;-72
2022/07/21 07:38:57;;;;;;;27.25;15.85;;;21.50;99.90;;;;;;4840336;29;20121;-72
2022/07/21 07:41:24;;;;;;;24.52;15.38;;;21.60;99.90;;;;;;4839257;29;20112;-72
2022/07/21 07:43:51;;;;;;;25.65;14.75;;;21.60;99.90;;;;;;4840195;29;20042;-71
2022/07/21 07:46:18;;;;;;;22.77;13.48;;;21.60;99.90;;;;;;4822425;29;20054;-71
2022/07/21 07:48:44;;;;;;;20.50;13.52;;;21.60;99.90;;;;;;4839553;29;20441;-70
2022/07/21 07:51:11;;;;;;;23.60;14.15;;;21.70;99.90;;;;;;4839235;29;20050;-73
2022/07/21 07:53:38;;;;;;;21.67;14.40;;;21.90;99.90;;;;;;4825259;29;20042;-72
2022/07/21 07:56:04;;;;;;;26.90;14.10;;;21.90;99.90;;;;;;4839571;29;20394;-74
2022/07/21 07:58:31;;;;;;;20.23;13.93;;;21.90;99.90;;;;;;4837846;29;20090;-70
2022/07/21 08:00:57;;;;;;;20.70;14.10;;;22.00;99.90;;;;;;4836751;29;20050;-72
2022/07/21 08:03:23;;;;;;;23.17;13.80;;;22.30;99.90;;;;;;4837022;29;20678;-71
2022/07/21 08:05:50;;;;;;;21.83;14.02;;;22.50;99.90;;;;;;4840366;29;20038;-72
2022/07/21 08:08:17;;;;;;;22.38;14.57;;;22.50;99.90;;;;;;4836341;29;20030;-72
2022/07/21 08:10:45;;;;;;;24.83;15.10;;;22.20;99.90;;;;;;4839689;29;20117;-72
2022/07/21 08:13:13;;;;;;;24.08;14.15;;;22.00;99.90;;;;;;4836853;29;20070;-72
2022/07/21 08:15:39;;;;;;;23.30;14.65;;;22.00;99.90;;;;;;4837919;29;20046;-73
2022/07/21 08:18:06;;;;;;;20.58;13.38;;;22.00;99.90;;;;;;4839565;29;20030;-73
2022/07/21 08:20:32;;;;;;;19.13;13.20;;;22.10;99.90;;;;;;4837768;29;20077;-72
2022/07/21 08:22:57;;;;;;;19.95;12.30;;;22.30;99.90;;;;;;4837202;29;20098;-73
2022/07/21 08:25:23;;;;;;;20.17;11.52;;;22.50;99.90;;;;;;4839337;29;20278;-70
2022/07/21 08:27:49;;;;;;;16.25;10.50;;;22.60;99.90;;;;;;4838465;29;20077;-72
2022/07/21 08:30:14;;;;;;;19.08;11.65;;;22.40;99.90;;;;;;4839352;29;20036;-73
2022/07/21 08:32:40;;;;;;;21.42;12.13;;;22.20;99.90;;;;;;4836568;29;20049;-73
2022/07/21 08:35:10;;;;;;;17.90;11.85;;;22.30;99.90;;;;;;4825705;29;20085;-73
2022/07/21 08:37:36;;;;;;;18.75;11.80;;;22.50;99.90;;;;;;4849871;29;20037;-72
2022/07/21 08:40:08;;;;;;;16.75;11.73;;;22.70;99.90;;;;;;4839218;29;20105;-72
2022/07/21 08:42:37;;;;;;;18.52;11.88;;;22.70;99.90;;;;;;4838890;29;20130;-74
2022/07/21 08:45:04;;;;;;;19.00;11.15;;;22.80;99.90;;;;;;4838795;29;20034;-73
2022/07/21 08:47:31;;;;;;;19.05;11.82;;;22.80;99.90;;;;;;4839181;29;20046;-72
2022/07/21 08:49:57;;;;;;;21.50;11.95;;;22.60;99.90;;;;;;4834830;29;20064;-73
2022/07/21 08:52:23;;;;;;;19.70;11.98;;;22.40;99.90;;;;;;4839164;29;20034;-73
2022/07/21 08:54:49;;;;;;;20.98;12.80;;;22.50;99.90;;;;;;4839802;29;20036;-73
2022/07/21 08:57:16;;;;;;;17.58;12.00;;;22.50;99.90;;;;;;4836085;29;20034;-72
2022/07/21 08:59:41;;;;;;;16.60;11.90;;;22.80;99.90;;;;;;4838988;29;20141;-72
2022/07/21 09:02:29;;;;;;;20.98;11.65;;;23.00;99.90;;;;;;4839204;29;20643;-74
2022/07/21 09:04:55;;;;;;;20.35;12.57;;;22.80;99.90;;;;;;4834557;29;20443;-72
2022/07/21 09:07:22;;;;;;;27.48;12.70;;;22.70;99.90;;;;;;4838711;29;20094;-72
2022/07/21 09:10:00;;;;;;;17.38;12.27;;;23.00;99.90;;;;;;4837887;29;20037;-72
2022/07/21 09:12:26;;;;;;;20.10;11.93;;;23.30;99.90;;;;;;4837718;29;20739;-73
2022/07/21 09:14:52;;;;;;;20.20;11.60;;;23.30;99.90;;;;;;4837707;29;20025;-72
2022/07/21 09:17:19;;;;;;;18.05;12.55;;;23.00;99.90;;;;;;4838176;29;20580;-72
2022/07/21 09:19:46;;;;;;;21.20;12.90;;;23.20;99.90;;;;;;4838616;29;20567;-71
2022/07/21 09:22:18;;;;;;;18.60;11.80;;;23.30;99.90;;;;;;4838633;29;20429;-72
2022/07/21 09:24:53;;;;;;;27.10;11.73;;;23.30;99.90;;;;;;4836090;29;20094;-72
2022/07/21 09:27:25;;;;;;;18.02;12.02;;;23.20;99.90;;;;;;4836987;29;20120;-73
2022/07/21 09:29:57;;;;;;;19.38;12.73;;;23.00;99.90;;;;;;4838900;29;20493;-72
2022/07/21 09:32:30;;;;;;;17.25;12.02;;;22.80;99.90;;;;;;4837652;29;20079;-71
2022/07/21 09:35:02;;;;;;;21.15;12.27;;;22.60;99.90;;;;;;4837782;29;20030;-71
2022/07/21 09:37:28;;;;;;;20.20;11.75;;;22.70;99.90;;;;;;4838186;29;20234;-72
2022/07/21 09:39:55;;;;;;;18.58;11.40;;;23.20;99.90;;;;;;4837095;29;20680;-72
2022/07/21 09:42:30;;;;;;;15.35;10.23;;;23.50;99.90;;;;;;4836023;29;20026;-72
2022/07/21 09:45:01;;;;;;;16.55;11.27;;;23.60;99.90;;;;;;4838621;29;20030;-73
2022/07/21 09:47:29;;;;;;;15.93;10.27;;;23.60;99.90;;;;;;4836282;29;20049;-72
2022/07/21 09:49:55;;;;;;;15.88;11.43;;;23.50;99.90;;;;;;4838601;29;20042;-74
2022/07/21 09:52:30;;;;;;;17.05;10.40;;;23.30;99.90;;;;;;4835431;29;20049;-73
2022/07/21 09:55:16;;;;;;;18.08;10.70;;;23.30;99.90;;;;;;4837958;29;20060;-72
2022/07/21 09:57:43;;;;;;;15.57;10.10;;;23.10;99.90;;;;;;4821133;29;20034;-74
2022/07/21 10:00:13;;;;;;;21.23;10.63;;;23.40;99.90;;;;;;4836500;29;20233;-73
2022/07/21 10:02:39;;;;;;;17.60;10.82;;;23.60;99.90;;;;;;4837242;29;20362;-71
2022/07/21 10:05:10;;;;;;;18.23;10.65;;;23.80;99.90;;;;;;4836737;29;20044;-71
2022/07/21 10:07:39;;;;;;;17.60;11.80;;;24.10;99.90;;;;;;4837303;29;20046;-73
2022/07/21 10:10:05;;;;;;;17.10;10.57;;;24.50;99.90;;;;;;4836601;29;20166;-72
2022/07/21 10:12:31;;;;;;;15.35;10.45;;;24.60;99.90;;;;;;4837354;29;20034;-72
2022/07/21 10:14:57;;;;;;;15.10;10.45;;;24.70;99.90;;;;;;4834602;29;20037;-72
2022/07/21 10:17:25;;;;;;;15.18;11.15;;;24.70;99.90;;;;;;4836101;29;20026;-75
2022/07/21 10:20:16;;;;;;;18.42;11.20;;;24.80;99.90;;;;;;4838037;29;20038;-73
2022/07/21 10:23:22;;;;;;;20.58;11.80;;;24.70;99.90;;;;;;4838016;29;20042;-73
2022/07/21 10:25:48;;;;;;;19.17;11.32;;;24.70;99.90;;;;;;4843650;29;20110;-72
2022/07/21 10:28:15;;;;;;;20.27;11.32;;;24.90;99.90;;;;;;4840352;29;20065;-73
2022/07/21 10:30:44;;;;;;;14.18;10.77;;;24.90;99.90;;;;;;4839978;29;20044;-72
2022/07/21 10:33:11;;;;;;;18.17;11.63;;;24.70;99.90;;;;;;4824408;29;20069;-70
2022/07/21 10:35:49;;;;;;;16.10;11.40;;;24.50;99.90;;;;;;4840091;29;20220;-70
2022/07/21 10:38:32;;;;;;;14.70;10.52;;;24.20;99.90;;;;;;4840088;29;20075;-71
2022/07/21 10:40:59;;;;;;;16.77;10.77;;;24.20;99.90;;;;;;4842249;29;20041;-71
2022/07/21 10:43:25;;;;;;;15.77;10.10;;;24.10;99.90;;;;;;4839068;29;20045;-74
2022/07/21 10:45:52;;;;;;;18.35;10.55;;;24.10;99.90;;;;;;4839334;29;20393;-71
2022/07/21 10:48:36;;;;;;;16.55;11.07;;;24.30;99.90;;;;;;4839833;29;20034;-71
2022/07/21 10:51:06;;;;;;;17.85;10.77;;;24.80;99.90;;;;;;4828924;29;20516;-72
2022/07/21 10:53:32;;;;;;;;;;;25.00;99.90;;;;;;4840010;29;20018;-73
2022/07/21 10:55:58;;;;;;;15.13;10.00;;;25.20;99.90;;;;;;4839950;29;19923;-72
2022/07/21 10:58:29;;;;;;;15.07;10.90;;;25.00;99.90;;;;;;4837473;29;20041;-72
2022/07/21 11:01:06;;;;;;;20.92;11.15;;;24.90;99.90;;;;;;4839797;29;20398;-72
2022/07/21 11:03:40;;;;;;;20.33;11.30;;;24.50;99.90;;;;;;4825226;29;20029;-72
2022/07/21 11:06:05;;;;;;;17.58;10.30;;;24.40;99.90;;;;;;4840758;29;20050;-72
2022/07/21 11:08:33;;;;;;;15.07;9.55;;;24.60;99.90;;;;;;4841016;29;20084;-73
2022/07/21 11:11:14;;;;;;;13.73;9.57;;;24.80;99.90;;;;;;4840746;29;20061;-75
2022/07/21 11:14:14;;;;;;;14.90;9.50;;;25.20;99.90;;;;;;4823911;29;20090;-73
2022/07/21 11:16:46;;;;;;;16.38;9.07;;;25.30;99.90;;;;;;4839831;29;20038;-72
2022/07/21 11:19:39;;;;;;;13.00;9.43;;;25.20;99.90;;;;;;4841516;29;20045;-73
2022/07/21 11:22:23;;;;;;;15.73;9.90;;;25.80;99.90;;;;;;4840513;29;20106;-70
2022/07/21 11:25:00;;;;;;;17.95;9.93;;;26.30;99.90;;;;;;4840020;29;20083;-72
2022/07/21 11:27:28;;;;;;;18.05;10.60;;;26.80;99.90;;;;;;4839837;29;20178;-72
2022/07/21 11:29:58;;;;;;;16.88;10.45;;;27.00;99.90;;;;;;4839123;29;20038;-71
2022/07/21 11:32:25;;;;;;;13.30;10.40;;;26.70;99.90;;;;;;4839855;29;20038;-73
2022/07/21 11:34:59;;;;;;;13.40;10.15;;;26.70;99.90;;;;;;4839351;29;20041;-67
2022/07/21 11:37:43;;;;;;;13.82;9.63;;;26.90;99.90;;;;;;4838462;29;20057;-72
2022/07/21 11:40:17;;;;;;;11.25;8.20;;;27.00;99.90;;;;;;4836802;29;20069;-74
2022/07/21 11:42:46;;;;;;;12.88;9.18;;;26.90;99.90;;;;;;4840507;29;20478;-74
2022/07/21 11:45:14;;;;;;;12.43;10.13;;;27.00;99.90;;;;;;4840755;29;20072;-75
2022/07/21 11:47:40;;;;;;;12.38;8.93;;;26.70;99.90;;;;;;4839498;29;20299;-73
2022/07/21 11:50:09;;;;;;;12.10;9.05;;;26.10;99.90;;;;;;4839500;29;20497;-73
2022/07/21 11:52:39;;;;;;;13.38;9.40;;;26.00;99.60;;;;;;4839484;29;20042;-71
2022/07/21 11:55:08;;;;;;;17.70;9.20;;;26.30;99.90;;;;;;4839908;29;20598;-73
2022/07/21 11:57:34;;;;;;;11.65;9.25;;;26.80;99.90;;;;;;4839897;29;20042;-73
2022/07/21 12:00:00;;;;;;;12.00;8.68;;;27.00;99.90;;;;;;4839624;29;20517;-71
2022/07/21 12:02:28;;;;;;;12.07;8.95;;;26.90;99.90;;;;;;4837343;29;20034;-75
2022/07/21 12:05:03;;;;;;;17.92;9.07;;;27.00;99.90;;;;;;4839985;29;20151;-73
2022/07/21 12:07:49;;;;;;;12.05;8.70;;;26.60;99.80;;;;;;4837995;29;20398;-73
2022/07/21 12:10:24;;;;;;;11.30;8.38;;;26.70;99.90;;;;;;4839959;29;20038;-73
2022/07/21 12:12:50;;;;;;;12.07;9.05;;;27.20;99.90;;;;;;4833582;29;20062;-76
2022/07/21 12:15:30;;;;;;;11.18;8.15;;;27.60;98.20;;;;;;4839550;29;20104;-74
2022/07/21 12:17:58;;;;;;;10.45;7.78;;;27.70;98.50;;;;;;4839936;29;20128;-75
2022/07/21 12:20:27;;;;;;;13.68;8.13;;;27.70;95.80;;;;;;4840712;29;20042;-75
2022/07/21 12:22:56;;;;;;;10.70;7.83;;;27.70;94.90;;;;;;4837998;29;20092;-72
2022/07/21 12:25:35;;;;;;;11.23;8.35;;;27.60;95.20;;;;;;4821189;29;20468;-74
2022/07/21 12:28:02;;;;;;;11.57;9.00;;;26.90;95.60;;;;;;4838453;29;20550;-73
2022/07/21 12:30:41;;;;;;;13.20;8.45;;;26.30;99.00;;;;;;4837843;29;20045;-74
2022/07/21 12:33:10;;;;;;;10.48;8.23;;;26.10;97.80;;;;;;4821969;29;20542;-77
2022/07/21 12:35:42;;;;;;;11.18;7.80;;;26.20;99.90;;;;;;4834855;29;20040;-76
2022/07/21 12:38:19;;;;;;;13.00;7.95;;;26.40;98.40;;;;;;4837478;29;20030;-76
2022/07/21 12:40:47;;;;;;;16.98;8.45;;;26.50;99.20;;;;;;4838572;29;20400;-75
2022/07/21 12:43:19;;;;;;;12.80;8.57;;;26.60;98.70;;;;;;4836502;29;20401;-74
2022/07/21 12:45:50;;;;;;;11.30;7.95;;;26.40;97.80;;;;;;4836332;29;20042;-74
2022/07/21 12:48:19;;;;;;;11.60;8.48;;;26.30;98.70;;;;;;4838028;29;20134;-74
2022/07/21 12:51:14;;;;;;;16.05;7.97;;;26.20;96.50;;;;;;4838233;29;20106;-75
2022/07/21 12:53:47;;;;;;;13.90;8.52;;;26.20;98.00;;;;;;4833433;29;20090;-74
2022/07/21 12:56:21;;;;;;;13.93;8.27;;;26.20;97.10;;;;;;4839310;29;20030;-74
2022/07/21 12:58:48;;;;;;;14.40;8.60;;;26.10;98.50;;;;;;4837150;29;20101;-77
2022/07/21 13:01:16;;;;;;;11.75;8.45;;;26.10;97.40;;;;;;4835516;29;20133;-73
2022/07/21 13:03:43;;;;;;;12.85;8.43;;;25.90;98.40;;;;;;4836042;29;20037;-75
2022/07/21 13:06:10;;;;;;;15.73;8.50;;;25.90;99.10;;;;;;4837456;29;20066;-75